sensor_id;sensor_type;location;lat;lon;timestamp;P1;durP1;ratioP1;P2;durP2;ratioP2
11510;SDS011;5812;48.864;9.190;2022-07-06T00:01:17;1.88;;;1.88;;
11510;SDS011;5812;48.864;9.190;2022-07-06T00:03:43;1.90;;;1.90;;
11510;SDS011;5812;48.864;9.190;2022-07-06T00:06:08;1.98;;;1.98;;
11510;SDS011;5812;48.864;9.190;2022-07-06T00:08:34;1.63;;;1.63;;
11510;SDS011;5812;48.864;9.190;2022-07-06T00:11:00;1.77;;;1.77;;
11510;SDS011;5812;48.864;9.190;2022-07-06T00:13:26;1.67;;;1.67;;
11510;SDS011;5812;48.864;9.190;2022-07-06T00:15:51;2.00;;;2.00;;
11510;SDS011;5812;48.864;9.190;2022-07-06T00:18:17;1.90;;;1.90;;
11510;SDS011;5812;48.864;9.190;2022-07-06T00:20:43;2.08;;;2.08;;
11510;SDS011;5812;48.864;9.190;2022-07-06T00:23:08;1.75;;;1.75;;
11510;SDS011;5812;48.864;9.190;2022-07-06T00:25:34;1.80;;;1.80;;
11510;SDS011;5812;48.864;9.190;2022-07-06T00:28:00;1.98;;;1.98;;
11510;SDS011;5812;48.864;9.190;2022-07-06T00:30:25;1.92;;;1.92;;
11510;SDS011;5812;48.864;9.190;2022-07-06T00:32:51;2.08;;;2.08;;
11510;SDS011;5812;48.864;9.190;2022-07-06T00:35:17;2.10;;;2.10;;
11510;SDS011;5812;48.864;9.190;2022-07-06T00:37:42;2.03;;;2.03;;
11510;SDS011;5812;48.864;9.190;2022-07-06T00:40:08;2.20;;;2.20;;
11510;SDS011;5812;48.864;9.190;2022-07-06T00:42:44;2.10;;;2.10;;
11510;SDS011;5812;48.864;9.190;2022-07-06T00:45:11;1.90;;;1.90;;
11510;SDS011;5812;48.864;9.190;2022-07-06T00:47:38;1.83;;;1.83;;
11510;SDS011;5812;48.864;9.190;2022-07-06T00:50:04;2.00;;;2.00;;
11510;SDS011;5812;48.864;9.190;2022-07-06T00:52:47;2.00;;;2.00;;
11510;SDS011;5812;48.864;9.190;2022-07-06T00:55:18;2.33;;;2.33;;
11510;SDS011;5812;48.864;9.190;2022-07-06T00:57:46;2.10;;;2.10;;
11510;SDS011;5812;48.864;9.190;2022-07-06T01:00:13;2.20;;;2.20;;
11510;SDS011;5812;48.864;9.190;2022-07-06T01:02:41;1.80;;;1.80;;
11510;SDS011;5812;48.864;9.190;2022-07-06T01:05:07;1.83;;;1.83;;
11510;SDS011;5812;48.864;9.190;2022-07-06T01:07:34;1.93;;;1.93;;
11510;SDS011;5812;48.864;9.190;2022-07-06T01:10:02;2.10;;;2.10;;
11510;SDS011;5812;48.864;9.190;2022-07-06T01:12:29;1.90;;;1.90;;
11510;SDS011;5812;48.864;9.190;2022-07-06T01:14:55;1.93;;;1.93;;
11510;SDS011;5812;48.864;9.190;2022-07-06T01:17:22;2.17;;;2.17;;
11510;SDS011;5812;48.864;9.190;2022-07-06T01:19:48;1.70;;;1.70;;
11510;SDS011;5812;48.864;9.190;2022-07-06T01:22:14;1.80;;;1.80;;
11510;SDS011;5812;48.864;9.190;2022-07-06T01:24:40;2.15;;;2.15;;
11510;SDS011;5812;48.864;9.190;2022-07-06T01:27:06;1.93;;;1.93;;
11510;SDS011;5812;48.864;9.190;2022-07-06T01:29:35;1.80;;;1.80;;
11510;SDS011;5812;48.864;9.190;2022-07-06T01:35:22;2.03;;;2.03;;
11510;SDS011;5812;48.864;9.190;2022-07-06T01:37:51;1.70;;;1.70;;
11510;SDS011;5812;48.864;9.190;2022-07-06T01:40:17;1.97;;;1.97;;
11510;SDS011;5812;48.864;9.190;2022-07-06T01:42:42;1.73;;;1.73;;
11510;SDS011;5812;48.864;9.190;2022-07-06T01:45:08;1.77;;;1.77;;
11510;SDS011;5812;48.864;9.190;2022-07-06T01:47:34;2.13;;;2.13;;
11510;SDS011;5812;48.864;9.190;2022-07-06T01:50:00;1.80;;;1.80;;
11510;SDS011;5812;48.864;9.190;2022-07-06T01:52:28;2.27;;;2.27;;
11510;SDS011;5812;48.864;9.190;2022-07-06T01:54:55;1.90;;;1.90;;
11510;SDS011;5812;48.864;9.190;2022-07-06T01:57:21;1.73;;;1.73;;
11510;SDS011;5812;48.864;9.190;2022-07-06T01:59:47;2.10;;;2.10;;
11510;SDS011;5812;48.864;9.190;2022-07-06T02:02:12;2.10;;;2.10;;
11510;SDS011;5812;48.864;9.190;2022-07-06T02:04:38;2.30;;;2.30;;
11510;SDS011;5812;48.864;9.190;2022-07-06T02:07:04;1.90;;;1.90;;
11510;SDS011;5812;48.864;9.190;2022-07-06T02:09:29;2.03;;;2.03;;
11510;SDS011;5812;48.864;9.190;2022-07-06T02:11:55;2.23;;;2.23;;
11510;SDS011;5812;48.864;9.190;2022-07-06T02:14:21;1.70;;;1.70;;
11510;SDS011;5812;48.864;9.190;2022-07-06T02:16:46;1.83;;;1.83;;
11510;SDS011;5812;48.864;9.190;2022-07-06T02:19:12;1.57;;;1.57;;
11510;SDS011;5812;48.864;9.190;2022-07-06T02:21:37;1.80;;;1.80;;
11510;SDS011;5812;48.864;9.190;2022-07-06T02:24:03;2.30;;;2.30;;
11510;SDS011;5812;48.864;9.190;2022-07-06T02:26:29;2.03;;;2.03;;
11510;SDS011;5812;48.864;9.190;2022-07-06T02:28:55;1.80;;;1.80;;
11510;SDS011;5812;48.864;9.190;2022-07-06T02:31:20;2.60;;;2.60;;
11510;SDS011;5812;48.864;9.190;2022-07-06T02:33:46;2.20;;;2.20;;
11510;SDS011;5812;48.864;9.190;2022-07-06T02:36:11;2.20;;;2.20;;
11510;SDS011;5812;48.864;9.190;2022-07-06T02:38:37;2.10;;;2.10;;
11510;SDS011;5812;48.864;9.190;2022-07-06T02:41:02;2.10;;;2.10;;
11510;SDS011;5812;48.864;9.190;2022-07-06T02:43:28;2.40;;;2.40;;
11510;SDS011;5812;48.864;9.190;2022-07-06T02:45:54;2.73;;;2.73;;
11510;SDS011;5812;48.864;9.190;2022-07-06T02:48:19;2.00;;;2.00;;
11510;SDS011;5812;48.864;9.190;2022-07-06T02:50:46;2.23;;;2.23;;
11510;SDS011;5812;48.864;9.190;2022-07-06T02:53:12;2.20;;;2.20;;
11510;SDS011;5812;48.864;9.190;2022-07-06T02:55:38;2.50;;;2.50;;
11510;SDS011;5812;48.864;9.190;2022-07-06T02:58:03;2.27;;;2.27;;
11510;SDS011;5812;48.864;9.190;2022-07-06T03:00:29;2.17;;;2.17;;
11510;SDS011;5812;48.864;9.190;2022-07-06T03:02:54;2.40;;;2.40;;
11510;SDS011;5812;48.864;9.190;2022-07-06T03:05:20;2.70;;;2.70;;
11510;SDS011;5812;48.864;9.190;2022-07-06T03:07:46;2.00;;;2.00;;
11510;SDS011;5812;48.864;9.190;2022-07-06T03:10:11;2.00;;;2.00;;
11510;SDS011;5812;48.864;9.190;2022-07-06T03:12:37;2.30;;;2.30;;
11510;SDS011;5812;48.864;9.190;2022-07-06T03:15:02;2.10;;;2.10;;
11510;SDS011;5812;48.864;9.190;2022-07-06T03:17:28;2.23;;;2.23;;
11510;SDS011;5812;48.864;9.190;2022-07-06T03:19:54;2.30;;;2.30;;
11510;SDS011;5812;48.864;9.190;2022-07-06T03:22:20;2.60;;;2.60;;
11510;SDS011;5812;48.864;9.190;2022-07-06T03:24:45;2.47;;;2.47;;
11510;SDS011;5812;48.864;9.190;2022-07-06T03:27:11;2.30;;;2.30;;
11510;SDS011;5812;48.864;9.190;2022-07-06T03:29:36;2.50;;;2.50;;
11510;SDS011;5812;48.864;9.190;2022-07-06T03:32:02;2.63;;;2.63;;
11510;SDS011;5812;48.864;9.190;2022-07-06T03:34:28;2.90;;;2.90;;
11510;SDS011;5812;48.864;9.190;2022-07-06T03:36:53;2.67;;;2.67;;
11510;SDS011;5812;48.864;9.190;2022-07-06T03:39:19;2.50;;;2.50;;
11510;SDS011;5812;48.864;9.190;2022-07-06T03:41:44;2.73;;;2.73;;
11510;SDS011;5812;48.864;9.190;2022-07-06T03:44:10;2.97;;;2.97;;
11510;SDS011;5812;48.864;9.190;2022-07-06T03:46:36;2.67;;;2.67;;
11510;SDS011;5812;48.864;9.190;2022-07-06T03:49:01;2.93;;;2.93;;
11510;SDS011;5812;48.864;9.190;2022-07-06T03:51:28;2.87;;;2.87;;
11510;SDS011;5812;48.864;9.190;2022-07-06T03:53:53;3.20;;;3.20;;
11510;SDS011;5812;48.864;9.190;2022-07-06T03:56:19;2.77;;;2.77;;
11510;SDS011;5812;48.864;9.190;2022-07-06T03:58:57;3.17;;;3.17;;
11510;SDS011;5812;48.864;9.190;2022-07-06T04:01:24;3.20;;;3.20;;
11510;SDS011;5812;48.864;9.190;2022-07-06T04:03:50;3.00;;;3.00;;
11510;SDS011;5812;48.864;9.190;2022-07-06T04:06:16;3.20;;;3.20;;
11510;SDS011;5812;48.864;9.190;2022-07-06T04:08:42;3.50;;;3.50;;
11510;SDS011;5812;48.864;9.190;2022-07-06T04:11:07;3.30;;;3.30;;
11510;SDS011;5812;48.864;9.190;2022-07-06T04:13:33;3.33;;;3.33;;
11510;SDS011;5812;48.864;9.190;2022-07-06T04:15:59;3.40;;;3.40;;
11510;SDS011;5812;48.864;9.190;2022-07-06T04:18:24;3.70;;;3.70;;
11510;SDS011;5812;48.864;9.190;2022-07-06T04:20:50;3.37;;;3.37;;
11510;SDS011;5812;48.864;9.190;2022-07-06T04:23:16;3.40;;;3.40;;
11510;SDS011;5812;48.864;9.190;2022-07-06T04:25:41;3.23;;;3.23;;
11510;SDS011;5812;48.864;9.190;2022-07-06T04:28:07;4.10;;;4.10;;
11510;SDS011;5812;48.864;9.190;2022-07-06T04:30:33;3.50;;;3.50;;
11510;SDS011;5812;48.864;9.190;2022-07-06T04:32:58;3.97;;;3.97;;
11510;SDS011;5812;48.864;9.190;2022-07-06T04:35:24;3.17;;;3.17;;
11510;SDS011;5812;48.864;9.190;2022-07-06T04:37:50;3.40;;;3.40;;
11510;SDS011;5812;48.864;9.190;2022-07-06T04:40:15;3.57;;;3.57;;
11510;SDS011;5812;48.864;9.190;2022-07-06T04:42:41;3.20;;;3.20;;
11510;SDS011;5812;48.864;9.190;2022-07-06T04:45:07;3.13;;;3.13;;
11510;SDS011;5812;48.864;9.190;2022-07-06T04:47:34;3.37;;;3.37;;
11510;SDS011;5812;48.864;9.190;2022-07-06T04:50:00;3.57;;;3.57;;
11510;SDS011;5812;48.864;9.190;2022-07-06T04:52:26;3.10;;;3.10;;
11510;SDS011;5812;48.864;9.190;2022-07-06T04:54:52;3.20;;;3.20;;
11510;SDS011;5812;48.864;9.190;2022-07-06T04:57:19;3.27;;;3.27;;
11510;SDS011;5812;48.864;9.190;2022-07-06T04:59:45;3.50;;;3.50;;
11510;SDS011;5812;48.864;9.190;2022-07-06T05:02:11;3.10;;;3.10;;
11510;SDS011;5812;48.864;9.190;2022-07-06T05:04:37;3.53;;;3.53;;
11510;SDS011;5812;48.864;9.190;2022-07-06T05:07:02;3.40;;;3.40;;
11510;SDS011;5812;48.864;9.190;2022-07-06T05:09:28;3.03;;;3.03;;
11510;SDS011;5812;48.864;9.190;2022-07-06T05:11:54;3.17;;;3.17;;
11510;SDS011;5812;48.864;9.190;2022-07-06T05:14:19;2.97;;;2.97;;
11510;SDS011;5812;48.864;9.190;2022-07-06T05:16:45;2.47;;;2.47;;
11510;SDS011;5812;48.864;9.190;2022-07-06T05:19:11;3.10;;;3.10;;
11510;SDS011;5812;48.864;9.190;2022-07-06T05:21:37;2.60;;;2.60;;
11510;SDS011;5812;48.864;9.190;2022-07-06T05:24:03;2.90;;;2.90;;
11510;SDS011;5812;48.864;9.190;2022-07-06T05:26:28;2.80;;;2.80;;
11510;SDS011;5812;48.864;9.190;2022-07-06T05:28:54;2.70;;;2.70;;
11510;SDS011;5812;48.864;9.190;2022-07-06T05:31:20;2.55;;;2.55;;
11510;SDS011;5812;48.864;9.190;2022-07-06T05:33:45;2.60;;;2.60;;
11510;SDS011;5812;48.864;9.190;2022-07-06T05:36:11;2.60;;;2.60;;
11510;SDS011;5812;48.864;9.190;2022-07-06T05:38:36;2.60;;;2.60;;
11510;SDS011;5812;48.864;9.190;2022-07-06T05:41:02;2.75;;;2.75;;
11510;SDS011;5812;48.864;9.190;2022-07-06T05:43:28;2.17;;;2.17;;
11510;SDS011;5812;48.864;9.190;2022-07-06T05:45:53;2.80;;;2.80;;
11510;SDS011;5812;48.864;9.190;2022-07-06T05:48:19;2.53;;;2.53;;
11510;SDS011;5812;48.864;9.190;2022-07-06T05:51:03;2.25;;;2.25;;
11510;SDS011;5812;48.864;9.190;2022-07-06T05:53:28;2.33;;;2.33;;
11510;SDS011;5812;48.864;9.190;2022-07-06T05:55:54;2.55;;;2.55;;
11510;SDS011;5812;48.864;9.190;2022-07-06T05:58:20;2.50;;;2.50;;
11510;SDS011;5812;48.864;9.190;2022-07-06T06:00:45;2.20;;;2.20;;
11510;SDS011;5812;48.864;9.190;2022-07-06T06:03:11;2.25;;;2.25;;
11510;SDS011;5812;48.864;9.190;2022-07-06T06:05:36;2.45;;;2.45;;
11510;SDS011;5812;48.864;9.190;2022-07-06T06:08:02;2.30;;;2.30;;
11510;SDS011;5812;48.864;9.190;2022-07-06T06:10:28;2.13;;;2.13;;
11510;SDS011;5812;48.864;9.190;2022-07-06T06:12:54;2.00;;;2.00;;
11510;SDS011;5812;48.864;9.190;2022-07-06T06:15:20;2.10;;;2.10;;
11510;SDS011;5812;48.864;9.190;2022-07-06T06:17:45;2.20;;;2.20;;
11510;SDS011;5812;48.864;9.190;2022-07-06T06:20:12;1.88;;;1.88;;
11510;SDS011;5812;48.864;9.190;2022-07-06T06:22:49;1.80;;;1.80;;
11510;SDS011;5812;48.864;9.190;2022-07-06T06:25:17;2.17;;;2.17;;
11510;SDS011;5812;48.864;9.190;2022-07-06T06:27:45;2.20;;;2.20;;
11510;SDS011;5812;48.864;9.190;2022-07-06T06:30:10;1.70;;;1.70;;
11510;SDS011;5812;48.864;9.190;2022-07-06T06:32:37;1.83;;;1.83;;
11510;SDS011;5812;48.864;9.190;2022-07-06T06:35:03;2.15;;;2.15;;
11510;SDS011;5812;48.864;9.190;2022-07-06T06:37:30;1.80;;;1.80;;
11510;SDS011;5812;48.864;9.190;2022-07-06T06:39:55;1.70;;;1.70;;
11510;SDS011;5812;48.864;9.190;2022-07-06T06:42:21;2.17;;;2.17;;
11510;SDS011;5812;48.864;9.190;2022-07-06T06:44:47;2.50;;;2.50;;
11510;SDS011;5812;48.864;9.190;2022-07-06T06:47:12;2.28;;;2.28;;
11510;SDS011;5812;48.864;9.190;2022-07-06T06:49:38;2.03;;;2.03;;
11510;SDS011;5812;48.864;9.190;2022-07-06T06:52:04;1.92;;;1.92;;
11510;SDS011;5812;48.864;9.190;2022-07-06T06:54:29;2.00;;;2.00;;
11510;SDS011;5812;48.864;9.190;2022-07-06T06:56:55;1.90;;;1.90;;
11510;SDS011;5812;48.864;9.190;2022-07-06T06:59:20;1.80;;;1.80;;
11510;SDS011;5812;48.864;9.190;2022-07-06T07:01:46;1.98;;;1.98;;
11510;SDS011;5812;48.864;9.190;2022-07-06T07:04:12;1.88;;;1.88;;
11510;SDS011;5812;48.864;9.190;2022-07-06T07:06:38;2.33;;;2.33;;
11510;SDS011;5812;48.864;9.190;2022-07-06T07:09:04;2.05;;;2.05;;
11510;SDS011;5812;48.864;9.190;2022-07-06T07:11:30;2.35;;;2.35;;
11510;SDS011;5812;48.864;9.190;2022-07-06T07:13:56;2.20;;;2.20;;
11510;SDS011;5812;48.864;9.190;2022-07-06T07:16:21;1.80;;;1.80;;
11510;SDS011;5812;48.864;9.190;2022-07-06T07:18:49;1.95;;;1.95;;
11510;SDS011;5812;48.864;9.190;2022-07-06T07:21:15;1.67;;;1.67;;
11510;SDS011;5812;48.864;9.190;2022-07-06T07:23:40;1.90;;;1.90;;
11510;SDS011;5812;48.864;9.190;2022-07-06T07:26:06;2.10;;;2.10;;
11510;SDS011;5812;48.864;9.190;2022-07-06T07:28:32;1.90;;;1.90;;
11510;SDS011;5812;48.864;9.190;2022-07-06T07:30:57;2.08;;;2.08;;
11510;SDS011;5812;48.864;9.190;2022-07-06T07:33:23;1.88;;;1.88;;
11510;SDS011;5812;48.864;9.190;2022-07-06T07:35:48;2.33;;;2.33;;
11510;SDS011;5812;48.864;9.190;2022-07-06T07:38:14;1.92;;;1.92;;
11510;SDS011;5812;48.864;9.190;2022-07-06T07:40:40;1.90;;;1.90;;
11510;SDS011;5812;48.864;9.190;2022-07-06T07:43:05;1.73;;;1.73;;
11510;SDS011;5812;48.864;9.190;2022-07-06T07:45:31;1.90;;;1.90;;
11510;SDS011;5812;48.864;9.190;2022-07-06T07:47:57;1.92;;;1.92;;
11510;SDS011;5812;48.864;9.190;2022-07-06T07:50:23;2.20;;;2.20;;
11510;SDS011;5812;48.864;9.190;2022-07-06T07:52:49;1.75;;;1.75;;
11510;SDS011;5812;48.864;9.190;2022-07-06T07:55:14;2.00;;;2.00;;
11510;SDS011;5812;48.864;9.190;2022-07-06T07:57:40;1.70;;;1.70;;
11510;SDS011;5812;48.864;9.190;2022-07-06T08:00:06;2.20;;;2.20;;
11510;SDS011;5812;48.864;9.190;2022-07-06T08:02:32;2.10;;;2.10;;
11510;SDS011;5812;48.864;9.190;2022-07-06T08:04:57;1.98;;;1.98;;
11510;SDS011;5812;48.864;9.190;2022-07-06T08:07:23;1.83;;;1.83;;
11510;SDS011;5812;48.864;9.190;2022-07-06T08:09:48;1.98;;;1.98;;
11510;SDS011;5812;48.864;9.190;2022-07-06T08:12:14;2.00;;;2.00;;
11510;SDS011;5812;48.864;9.190;2022-07-06T08:14:40;1.83;;;1.83;;
11510;SDS011;5812;48.864;9.190;2022-07-06T08:17:05;2.00;;;2.00;;
11510;SDS011;5812;48.864;9.190;2022-07-06T08:19:31;1.83;;;1.83;;
11510;SDS011;5812;48.864;9.190;2022-07-06T08:21:57;1.95;;;1.95;;
11510;SDS011;5812;48.864;9.190;2022-07-06T08:24:23;1.75;;;1.75;;
11510;SDS011;5812;48.864;9.190;2022-07-06T08:26:49;1.85;;;1.85;;
11510;SDS011;5812;48.864;9.190;2022-07-06T08:29:14;1.73;;;1.73;;
11510;SDS011;5812;48.864;9.190;2022-07-06T08:31:40;2.00;;;2.00;;
11510;SDS011;5812;48.864;9.190;2022-07-06T08:34:06;2.25;;;2.25;;
11510;SDS011;5812;48.864;9.190;2022-07-06T08:36:32;2.05;;;2.05;;
11510;SDS011;5812;48.864;9.190;2022-07-06T08:38:58;1.63;;;1.63;;
11510;SDS011;5812;48.864;9.190;2022-07-06T08:41:24;1.50;;;1.50;;
11510;SDS011;5812;48.864;9.190;2022-07-06T08:43:51;1.77;;;1.77;;
11510;SDS011;5812;48.864;9.190;2022-07-06T08:46:17;1.40;;;1.40;;
11510;SDS011;5812;48.864;9.190;2022-07-06T08:48:44;2.20;;;2.20;;
11510;SDS011;5812;48.864;9.190;2022-07-06T08:51:11;1.80;;;1.80;;
11510;SDS011;5812;48.864;9.190;2022-07-06T08:53:40;1.88;;;1.88;;
11510;SDS011;5812;48.864;9.190;2022-07-06T08:56:07;1.90;;;1.90;;
11510;SDS011;5812;48.864;9.190;2022-07-06T08:58:33;1.60;;;1.60;;
11510;SDS011;5812;48.864;9.190;2022-07-06T09:00:59;2.00;;;2.00;;
11510;SDS011;5812;48.864;9.190;2022-07-06T09:03:25;2.05;;;2.05;;
11510;SDS011;5812;48.864;9.190;2022-07-06T09:05:52;1.75;;;1.75;;
11510;SDS011;5812;48.864;9.190;2022-07-06T09:08:21;2.45;;;2.45;;
11510;SDS011;5812;48.864;9.190;2022-07-06T09:10:49;1.80;;;1.80;;
11510;SDS011;5812;48.864;9.190;2022-07-06T09:13:15;2.20;;;2.20;;
11510;SDS011;5812;48.864;9.190;2022-07-06T09:15:40;1.73;;;1.73;;
11510;SDS011;5812;48.864;9.190;2022-07-06T09:18:06;2.00;;;2.00;;
11510;SDS011;5812;48.864;9.190;2022-07-06T09:20:33;1.85;;;1.85;;
11510;SDS011;5812;48.864;9.190;2022-07-06T09:23:02;1.67;;;1.67;;
11510;SDS011;5812;48.864;9.190;2022-07-06T09:25:30;1.70;;;1.70;;
11510;SDS011;5812;48.864;9.190;2022-07-06T09:27:56;1.88;;;1.88;;
11510;SDS011;5812;48.864;9.190;2022-07-06T09:30:23;1.80;;;1.80;;
11510;SDS011;5812;48.864;9.190;2022-07-06T09:32:51;2.00;;;2.00;;
11510;SDS011;5812;48.864;9.190;2022-07-06T09:35:25;1.80;;;1.80;;
11510;SDS011;5812;48.864;9.190;2022-07-06T09:38:11;2.03;;;2.03;;
11510;SDS011;5812;48.864;9.190;2022-07-06T09:40:41;1.90;;;1.90;;
11510;SDS011;5812;48.864;9.190;2022-07-06T09:43:16;1.90;;;1.90;;
11510;SDS011;5812;48.864;9.190;2022-07-06T09:45:45;1.58;;;1.58;;
11510;SDS011;5812;48.864;9.190;2022-07-06T09:48:14;1.63;;;1.63;;
11510;SDS011;5812;48.864;9.190;2022-07-06T09:50:47;1.75;;;1.75;;
11510;SDS011;5812;48.864;9.190;2022-07-06T09:53:18;1.90;;;1.90;;
11510;SDS011;5812;48.864;9.190;2022-07-06T09:55:48;2.00;;;2.00;;
11510;SDS011;5812;48.864;9.190;2022-07-06T09:58:16;1.67;;;1.67;;
11510;SDS011;5812;48.864;9.190;2022-07-06T10:00:43;1.38;;;1.38;;
11510;SDS011;5812;48.864;9.190;2022-07-06T10:03:09;1.90;;;1.90;;
11510;SDS011;5812;48.864;9.190;2022-07-06T10:05:36;1.98;;;1.98;;
11510;SDS011;5812;48.864;9.190;2022-07-06T10:08:03;1.77;;;1.77;;
11510;SDS011;5812;48.864;9.190;2022-07-06T10:10:31;1.80;;;1.80;;
11510;SDS011;5812;48.864;9.190;2022-07-06T10:12:58;1.50;;;1.50;;
11510;SDS011;5812;48.864;9.190;2022-07-06T10:15:25;2.00;;;2.00;;
11510;SDS011;5812;48.864;9.190;2022-07-06T10:17:53;1.58;;;1.58;;
11510;SDS011;5812;48.864;9.190;2022-07-06T10:20:20;2.42;;;2.42;;
11510;SDS011;5812;48.864;9.190;2022-07-06T10:22:47;1.85;;;1.85;;
11510;SDS011;5812;48.864;9.190;2022-07-06T10:25:17;1.80;;;1.80;;
11510;SDS011;5812;48.864;9.190;2022-07-06T10:27:44;1.67;;;1.67;;
11510;SDS011;5812;48.864;9.190;2022-07-06T10:30:11;1.80;;;1.80;;
11510;SDS011;5812;48.864;9.190;2022-07-06T10:32:39;1.58;;;1.58;;
11510;SDS011;5812;48.864;9.190;2022-07-06T10:35:07;1.77;;;1.77;;
11510;SDS011;5812;48.864;9.190;2022-07-06T10:37:33;1.55;;;1.55;;
11510;SDS011;5812;48.864;9.190;2022-07-06T10:39:59;1.60;;;1.60;;
11510;SDS011;5812;48.864;9.190;2022-07-06T10:45:10;2.33;;;2.33;;
11510;SDS011;5812;48.864;9.190;2022-07-06T10:47:39;1.45;;;1.45;;
11510;SDS011;5812;48.864;9.190;2022-07-06T10:50:06;1.83;;;1.83;;
11510;SDS011;5812;48.864;9.190;2022-07-06T10:55:38;1.90;;;1.90;;
11510;SDS011;5812;48.864;9.190;2022-07-06T10:58:05;1.70;;;1.70;;
11510;SDS011;5812;48.864;9.190;2022-07-06T11:05:59;1.23;;;1.23;;
11510;SDS011;5812;48.864;9.190;2022-07-06T11:08:44;1.40;;;1.40;;
11510;SDS011;5812;48.864;9.190;2022-07-06T11:11:19;1.67;;;1.67;;
11510;SDS011;5812;48.864;9.190;2022-07-06T11:13:50;1.83;;;1.83;;
11510;SDS011;5812;48.864;9.190;2022-07-06T11:16:17;1.63;;;1.63;;
11510;SDS011;5812;48.864;9.190;2022-07-06T11:18:48;1.73;;;1.73;;
11510;SDS011;5812;48.864;9.190;2022-07-06T11:23:48;1.73;;;1.73;;
11510;SDS011;5812;48.864;9.190;2022-07-06T11:26:15;1.80;;;1.80;;
11510;SDS011;5812;48.864;9.190;2022-07-06T11:28:41;1.80;;;1.80;;
11510;SDS011;5812;48.864;9.190;2022-07-06T11:31:10;1.92;;;1.92;;
11510;SDS011;5812;48.864;9.190;2022-07-06T11:33:36;1.40;;;1.40;;
11510;SDS011;5812;48.864;9.190;2022-07-06T11:38:40;1.65;;;1.65;;
11510;SDS011;5812;48.864;9.190;2022-07-06T11:41:06;1.65;;;1.65;;
11510;SDS011;5812;48.864;9.190;2022-07-06T11:43:32;1.70;;;1.70;;
11510;SDS011;5812;48.864;9.190;2022-07-06T11:45:58;1.50;;;1.50;;
11510;SDS011;5812;48.864;9.190;2022-07-06T11:48:23;1.77;;;1.77;;
11510;SDS011;5812;48.864;9.190;2022-07-06T11:53:24;1.27;;;1.27;;
11510;SDS011;5812;48.864;9.190;2022-07-06T11:55:49;1.63;;;1.63;;
11510;SDS011;5812;48.864;9.190;2022-07-06T11:58:15;1.63;;;1.63;;
11510;SDS011;5812;48.864;9.190;2022-07-06T12:01:02;1.75;;;1.75;;
11510;SDS011;5812;48.864;9.190;2022-07-06T12:03:35;1.30;;;1.30;;
11510;SDS011;5812;48.864;9.190;2022-07-06T12:06:02;1.30;;;1.30;;
11510;SDS011;5812;48.864;9.190;2022-07-06T12:08:28;1.65;;;1.65;;
11510;SDS011;5812;48.864;9.190;2022-07-06T12:10:54;1.50;;;1.50;;
11510;SDS011;5812;48.864;9.190;2022-07-06T12:13:20;1.48;;;1.48;;
11510;SDS011;5812;48.864;9.190;2022-07-06T12:15:46;1.15;;;1.15;;
11510;SDS011;5812;48.864;9.190;2022-07-06T12:18:12;1.70;;;1.70;;
11510;SDS011;5812;48.864;9.190;2022-07-06T12:20:37;1.70;;;1.70;;
11510;SDS011;5812;48.864;9.190;2022-07-06T12:23:04;1.73;;;1.73;;
11510;SDS011;5812;48.864;9.190;2022-07-06T12:25:34;1.58;;;1.58;;
11510;SDS011;5812;48.864;9.190;2022-07-06T12:28:01;1.50;;;1.50;;
11510;SDS011;5812;48.864;9.190;2022-07-06T12:30:28;1.55;;;1.55;;
11510;SDS011;5812;48.864;9.190;2022-07-06T12:35:40;1.92;;;1.92;;
11510;SDS011;5812;48.864;9.190;2022-07-06T12:38:06;1.45;;;1.45;;
11510;SDS011;5812;48.864;9.190;2022-07-06T12:40:32;1.40;;;1.40;;
11510;SDS011;5812;48.864;9.190;2022-07-06T12:42:58;1.35;;;1.35;;
11510;SDS011;5812;48.864;9.190;2022-07-06T12:45:27;1.55;;;1.55;;
11510;SDS011;5812;48.864;9.190;2022-07-06T12:48:01;1.60;;;1.60;;
11510;SDS011;5812;48.864;9.190;2022-07-06T12:50:35;1.20;;;1.20;;
11510;SDS011;5812;48.864;9.190;2022-07-06T12:53:05;1.50;;;1.50;;
11510;SDS011;5812;48.864;9.190;2022-07-06T12:55:36;1.40;;;1.40;;
11510;SDS011;5812;48.864;9.190;2022-07-06T12:58:02;1.30;;;1.30;;
11510;SDS011;5812;48.864;9.190;2022-07-06T13:00:28;1.00;;;1.00;;
11510;SDS011;5812;48.864;9.190;2022-07-06T13:02:53;1.40;;;1.40;;
11510;SDS011;5812;48.864;9.190;2022-07-06T13:05:26;1.10;;;1.10;;
11510;SDS011;5812;48.864;9.190;2022-07-06T13:07:56;1.40;;;1.40;;
11510;SDS011;5812;48.864;9.190;2022-07-06T13:10:23;1.20;;;1.20;;
11510;SDS011;5812;48.864;9.190;2022-07-06T13:12:50;1.20;;;1.20;;
11510;SDS011;5812;48.864;9.190;2022-07-06T13:15:16;1.10;;;1.10;;
11510;SDS011;5812;48.864;9.190;2022-07-06T13:17:42;1.33;;;1.33;;
11510;SDS011;5812;48.864;9.190;2022-07-06T13:20:09;1.42;;;1.42;;
11510;SDS011;5812;48.864;9.190;2022-07-06T13:22:38;1.10;;;1.10;;
11510;SDS011;5812;48.864;9.190;2022-07-06T13:25:03;1.65;;;1.65;;
11510;SDS011;5812;48.864;9.190;2022-07-06T13:27:30;1.30;;;1.30;;
11510;SDS011;5812;48.864;9.190;2022-07-06T13:29:55;1.15;;;1.15;;
11510;SDS011;5812;48.864;9.190;2022-07-06T13:32:21;1.45;;;1.45;;
11510;SDS011;5812;48.864;9.190;2022-07-06T13:34:47;1.40;;;1.40;;
11510;SDS011;5812;48.864;9.190;2022-07-06T13:37:13;1.15;;;1.15;;
11510;SDS011;5812;48.864;9.190;2022-07-06T13:39:38;0.90;;;0.90;;
11510;SDS011;5812;48.864;9.190;2022-07-06T13:42:04;1.30;;;1.30;;
11510;SDS011;5812;48.864;9.190;2022-07-06T13:44:30;1.40;;;1.40;;
11510;SDS011;5812;48.864;9.190;2022-07-06T13:46:56;1.10;;;1.10;;
11510;SDS011;5812;48.864;9.190;2022-07-06T13:49:21;1.10;;;1.10;;
11510;SDS011;5812;48.864;9.190;2022-07-06T13:51:47;1.10;;;1.10;;
11510;SDS011;5812;48.864;9.190;2022-07-06T13:54:13;1.27;;;1.27;;
11510;SDS011;5812;48.864;9.190;2022-07-06T13:56:39;1.30;;;1.30;;
11510;SDS011;5812;48.864;9.190;2022-07-06T13:59:04;1.17;;;1.17;;
11510;SDS011;5812;48.864;9.190;2022-07-06T14:01:32;1.20;;;1.20;;
11510;SDS011;5812;48.864;9.190;2022-07-06T14:03:58;1.50;;;1.50;;
11510;SDS011;5812;48.864;9.190;2022-07-06T14:06:23;1.10;;;1.10;;
11510;SDS011;5812;48.864;9.190;2022-07-06T14:08:49;1.25;;;1.25;;
11510;SDS011;5812;48.864;9.190;2022-07-06T14:11:16;1.23;;;1.23;;
11510;SDS011;5812;48.864;9.190;2022-07-06T14:13:42;1.05;;;1.05;;
11510;SDS011;5812;48.864;9.190;2022-07-06T14:16:08;0.90;;;0.90;;
11510;SDS011;5812;48.864;9.190;2022-07-06T14:18:34;0.85;;;0.85;;
11510;SDS011;5812;48.864;9.190;2022-07-06T14:21:00;1.00;;;1.00;;
11510;SDS011;5812;48.864;9.190;2022-07-06T14:23:26;1.10;;;1.10;;
11510;SDS011;5812;48.864;9.190;2022-07-06T14:25:53;1.15;;;1.15;;
11510;SDS011;5812;48.864;9.190;2022-07-06T14:28:19;1.15;;;1.15;;
11510;SDS011;5812;48.864;9.190;2022-07-06T14:30:45;1.20;;;1.20;;
11510;SDS011;5812;48.864;9.190;2022-07-06T14:33:12;1.10;;;1.10;;
11510;SDS011;5812;48.864;9.190;2022-07-06T14:35:39;1.33;;;1.33;;
11510;SDS011;5812;48.864;9.190;2022-07-06T14:38:07;1.20;;;1.20;;
11510;SDS011;5812;48.864;9.190;2022-07-06T14:40:33;1.15;;;1.15;;
11510;SDS011;5812;48.864;9.190;2022-07-06T14:43:00;0.90;;;0.90;;
11510;SDS011;5812;48.864;9.190;2022-07-06T14:45:26;1.15;;;1.15;;
11510;SDS011;5812;48.864;9.190;2022-07-06T14:47:52;1.13;;;1.13;;
11510;SDS011;5812;48.864;9.190;2022-07-06T14:50:18;1.10;;;1.10;;
11510;SDS011;5812;48.864;9.190;2022-07-06T14:52:44;1.00;;;1.00;;
11510;SDS011;5812;48.864;9.190;2022-07-06T14:55:10;1.20;;;1.20;;
11510;SDS011;5812;48.864;9.190;2022-07-06T14:57:36;0.90;;;0.90;;
11510;SDS011;5812;48.864;9.190;2022-07-06T15:00:03;1.50;;;1.50;;
11510;SDS011;5812;48.864;9.190;2022-07-06T15:02:30;1.35;;;1.35;;
11510;SDS011;5812;48.864;9.190;2022-07-06T15:04:55;0.93;;;0.93;;
11510;SDS011;5812;48.864;9.190;2022-07-06T15:07:21;1.55;;;1.55;;
11510;SDS011;5812;48.864;9.190;2022-07-06T15:09:46;0.93;;;0.93;;
11510;SDS011;5812;48.864;9.190;2022-07-06T15:12:12;1.20;;;1.20;;
11510;SDS011;5812;48.864;9.190;2022-07-06T15:14:38;1.27;;;1.27;;
11510;SDS011;5812;48.864;9.190;2022-07-06T15:17:04;1.00;;;1.00;;
11510;SDS011;5812;48.864;9.190;2022-07-06T15:19:29;1.05;;;1.05;;
11510;SDS011;5812;48.864;9.190;2022-07-06T15:21:55;1.17;;;1.17;;